Карточка аэропорта UNWW

Внимание!
Информация на этой странице в стадии наполнения.
Если вы не увидели какой-то информации, или заметили неточность - пожалуйста сообщите нам!
Спасибо!
Команда RU-STAFF
Название аэропортаСпиченково
Название аэропорта (англ.)Spichenkovo
Превышение1023 ft. (311.8 m.)
Координаты53°48.714', 86°52.704'
Высота перехода800m
Эшелон переходаFL050
Коды ответчика5270-5277
Зона ОрВДНовосибирск РПИ (UNNT)
Данные METARUNWW 270500Z 09002MPS 060V130 4300 -RA BKN005 OVC030 06/06 Q1003 R01/290250 NOSIG RMK QFE725
Проноз погоды (TAF)UNWW 270200Z 2703/2803 03003G08MPS 8000 -SHRA BKN010 BKN016CB TEMPO 2703/2706 0600 FG BKN002 BKN011CB BECMG 2706/2707 BKN016CB TEMPO 2707/2803 SCT005 BKN011CB BECMG 2708/2709 25003G08MPS
NOTAMshow/hide NOTAM
AWOS   TABLE

Информация о ВПП

ВПП Длина ВПП (м.) Покрытие Курс ВПП Частота ILS
012679Цементобетон14 
192679Цементобетон194111.1

Диспетчерские позиции

Позывной Наименование органа УВД Частота
UNWW_APPНовокузнецк-Подход118.6
UNWW_TWRНовокузнецк-Старт121.2



Спутниковое изображение